Genco Hunter — V7NM6 — position and weather

sailwx.info

Track history (hours):
 
Tides and Currents Weather Stations Pressure Air Temp Water Temp Dewpoint Dewpoint Depression Visibility Wind Speed Wind Dir Waves Ship Positions

Genco Hunter

Last reported at 2018-Feb-17 01:40 UTC. Time now 2018-Feb-23 07:01 UTC.
Position N 36°40' W 026°11'.

Length 190 m; draft 10 m.

Type: Cargo ship. MMSI: 538002980.

Date/timePositionNaut miles runAvg speedWind from/ knotsBaromVisibWave heightAir tempDewpointWater temp
2018-Feb-17 01:40N 36°40' W 026°11'210.8
2018-Feb-17 01:30N 36°40' W 026°08'510.9
2018-Feb-17 01:00N 36°40' W 026°02'511.0
2018-Feb-17 00:30N 36°41' W 025°55'510.8
2018-Feb-17 00:00N 36°41' W 025°48'510.7
2018-Feb-16 23:31N 36°41' W 025°41'510.7
2018-Feb-16 23:00N 36°42' W 025°35'510.7
2018-Feb-16 22:30N 36°42' W 025°28'510.6
2018-Feb-16 22:00N 36°42' W 025°21'510.9
2018-Feb-16 21:30N 36°42' W 025°15'611.3
2018-Feb-16 21:00N 36°42' W 025°08'611.5
2018-Feb-16 20:31N 36°43' W 025°00'611.1
2018-Feb-16 20:00N 36°43' W 024°54'611.3
2018-Feb-16 19:30N 36°43' W 024°47'510.9
2018-Feb-16 19:01N 36°43' W 024°40'510.8
2018-Feb-16 18:30N 36°44' W 024°33'510.5
2018-Feb-16 18:01N 36°44' W 024°26'510.4
2018-Feb-16 17:30N 36°44' W 024°20'510.4
2018-Feb-16 17:00N 36°44' W 024°13'510.5
2018-Feb-16 16:30N 36°44' W 024°07'510.4
2018-Feb-16 16:00N 36°44' W 024°00'510.4
2018-Feb-16 15:30N 36°45' W 023°54'510.1
2018-Feb-16 15:00N 36°45' W 023°48'5 9.9
2018-Feb-16 14:30N 36°45' W 023°42'5 9.8
2018-Feb-16 14:00N 36°46' W 023°35'5 9.8
2018-Feb-16 13:29N 36°46' W 023°29'  
2018-Feb-12 23:13N 35°58' W 005°37'210.4
2018-Feb-12 23:01N 35°58' W 005°34'510.3
2018-Feb-12 22:31N 35°60' W 005°28'510.1
2018-Feb-12 22:00N 36°01' W 005°22'510.1
2018-Feb-12 21:30N 36°03' W 005°16'  
Track history (hours):
 
Tides and Currents Weather Stations Pressure Air Temp Water Temp Dewpoint Dewpoint Depression Visibility Wind Speed Wind Dir Waves Ship Positions

Genco Hunter

Last reported at 2018-Feb-17 01:40 UTC. Time now 2018-Feb-23 07:01 UTC.
Position N 36°40' W 026°11'.

Length 190 m; draft 10 m.

Type: Cargo ship. MMSI: 538002980.

Date/timePositionNaut miles runAvg speedWind from/ knotsBaromVisibWave heightAir tempDewpointWater temp
2018-Feb-17 01:40N 36°40' W 026°11'210.8
2018-Feb-17 01:30N 36°40' W 026°08'510.9
2018-Feb-17 01:00N 36°40' W 026°02'511.0
2018-Feb-17 00:30N 36°41' W 025°55'510.8
2018-Feb-17 00:00N 36°41' W 025°48'510.7
2018-Feb-16 23:31N 36°41' W 025°41'510.7
2018-Feb-16 23:00N 36°42' W 025°35'510.7
2018-Feb-16 22:30N 36°42' W 025°28'510.6
2018-Feb-16 22:00N 36°42' W 025°21'510.9
2018-Feb-16 21:30N 36°42' W 025°15'611.3
2018-Feb-16 21:00N 36°42' W 025°08'611.5
2018-Feb-16 20:31N 36°43' W 025°00'611.1
2018-Feb-16 20:00N 36°43' W 024°54'611.3
2018-Feb-16 19:30N 36°43' W 024°47'510.9
2018-Feb-16 19:01N 36°43' W 024°40'510.8
2018-Feb-16 18:30N 36°44' W 024°33'510.5
2018-Feb-16 18:01N 36°44' W 024°26'510.4
2018-Feb-16 17:30N 36°44' W 024°20'510.4
2018-Feb-16 17:00N 36°44' W 024°13'510.5
2018-Feb-16 16:30N 36°44' W 024°07'510.4
2018-Feb-16 16:00N 36°44' W 024°00'510.4
2018-Feb-16 15:30N 36°45' W 023°54'510.1
2018-Feb-16 15:00N 36°45' W 023°48'5 9.9
2018-Feb-16 14:30N 36°45' W 023°42'5 9.8
2018-Feb-16 14:00N 36°46' W 023°35'5 9.8
2018-Feb-16 13:29N 36°46' W 023°29'  
2018-Feb-12 23:13N 35°58' W 005°37'210.4
2018-Feb-12 23:01N 35°58' W 005°34'510.3
2018-Feb-12 22:31N 35°60' W 005°28'510.1
2018-Feb-12 22:00N 36°01' W 005°22'510.1
2018-Feb-12 21:30N 36°03' W 005°16'  

Dump ship's entire track history